Terminal Aerodrome Forecast
Issued by NWS Dallas/Fort Worth, TX

Home | Current Version | Previous Version | Text Only | Print | Product List | Glossary On
Versions: 1 2 3 4 5 6 7 8 9 10 11 12 13 14 15 16 17 18 19 20 21 22 23 24 25 26
121
FTUS44 KFWD 261738
TAFACT
TAF
KACT 261738Z 2618/2718 13005KT P6SM SCT025 SCT250
     FM262200 10008KT P6SM VCTS BKN060CB
     FM270000 13006KT P6SM FEW070 BKN300
     FM270600 18005KT P6SM SKC=

USA.gov is the U.S. government's official web portal to all federal, state and local government web resources and services.